WZZ413N EDDH-EDDF
Flight info
| Callsign | WZZ413N |
|---|---|
| Flight time | 0h 48m |
| Altitude | 30000 |
| Route | AMLUH2C AMLUH M852 DENIX DCT RIMET/N0426F310 T157 KOKEB/N0380F230 T157 KERAX KERAX5A |
| Aircraft | A321/M-SDE3FGHIRWY/LB1 |
Departure
| Time | 2026-05-07 08:23 |
|---|---|
| Airport | Hamburg Helmut Schmidt Airport (EDDH) |
Arrival
| Time | 2026-05-07 09:11 |
|---|---|
| Airport | Frankfurt Main Airport (EDDF) |
| Time | Latitude | Longitude | Altitude | Speed | Heading |
|---|---|---|---|---|---|
| 2026-05-07 07:47 | 53.63208 | 10.00355 | 46 ft | 0 kts | 86° |
| 2026-05-07 08:14 | 53.63207 | 10.00338 | 46 ft | 4 kts | 84° |
| 2026-05-07 08:14 | 53.63203 | 10.00293 | 46 ft | 4 kts | 81° |
| 2026-05-07 08:14 | 53.63203 | 10.00254 | 46 ft | 4 kts | 128° |
| 2026-05-07 08:14 | 53.63206 | 10.00246 | 46 ft | 0 kts | 176° |
| 2026-05-07 08:18 | 53.63195 | 10.00248 | 41 ft | 4 kts | 176° |
| 2026-05-07 08:18 | 53.63160 | 10.00252 | 46 ft | 6 kts | 176° |
| 2026-05-07 08:18 | 53.63114 | 10.00257 | 45 ft | 7 kts | 176° |
| 2026-05-07 08:18 | 53.63061 | 10.00251 | 46 ft | 8 kts | 201° |
| 2026-05-07 08:19 | 53.63008 | 10.00203 | 46 ft | 9 kts | 204° |
| 2026-05-07 08:19 | 53.62956 | 10.00163 | 46 ft | 4 kts | 214° |
| 2026-05-07 08:19 | 53.62933 | 10.00130 | 46 ft | 5 kts | 227° |
| 2026-05-07 08:19 | 53.62918 | 10.00104 | 46 ft | 3 kts | 226° |
| 2026-05-07 08:20 | 53.62899 | 10.00078 | 46 ft | 4 kts | 217° |
| 2026-05-07 08:20 | 53.62871 | 10.00043 | 45 ft | 6 kts | 215° |
| 2026-05-07 08:20 | 53.62843 | 10.00003 | 46 ft | 4 kts | 231° |
| 2026-05-07 08:20 | 53.62838 | 9.99968 | 47 ft | 0 kts | 256° |
| 2026-05-07 08:21 | 53.62836 | 9.99958 | 44 ft | 4 kts | 250° |
| 2026-05-07 08:21 | 53.62823 | 9.99896 | 45 ft | 6 kts | 251° |
| 2026-05-07 08:22 | 53.62811 | 9.99823 | 47 ft | 7 kts | 267° |
| 2026-05-07 08:22 | 53.62850 | 9.99768 | 47 ft | 10 kts | 328° |
| 2026-05-07 08:22 | 53.63115 | 9.99538 | 46 ft | 81 kts | 332° |
| 2026-05-07 08:22 | 53.63827 | 9.98918 | 41 ft | 146 kts | 333° |
| 2026-05-07 08:23 | 53.64842 | 9.98013 | 366 ft | 168 kts | 342° |
| 2026-05-07 08:23 | 53.65871 | 9.97167 | 1260 ft | 165 kts | 344° |
| 2026-05-07 08:23 | 53.66908 | 9.96315 | 2090 ft | 166 kts | 340° |
| 2026-05-07 08:23 | 53.67954 | 9.95437 | 2841 ft | 170 kts | 339° |
| 2026-05-07 08:24 | 53.69036 | 9.94764 | 3577 ft | 166 kts | 358° |
| 2026-05-07 08:24 | 53.70182 | 9.94685 | 4303 ft | 165 kts | 7° |
| 2026-05-07 08:24 | 53.71344 | 9.94699 | 4923 ft | 173 kts | 6° |
| 2026-05-07 08:24 | 53.72569 | 9.95241 | 5005 ft | 195 kts | 35° |
| 2026-05-07 08:25 | 53.73451 | 9.97013 | 5007 ft | 203 kts | 69° |
| 2026-05-07 08:25 | 53.73798 | 9.99347 | 5005 ft | 206 kts | 77° |
| 2026-05-07 08:25 | 53.74052 | 10.01735 | 5052 ft | 211 kts | 87° |
| 2026-05-07 08:25 | 53.73870 | 10.04231 | 5691 ft | 217 kts | 104° |
| 2026-05-07 08:26 | 53.72363 | 10.09220 | 6454 ft | 259 kts | 116° |
| 2026-05-07 08:26 | 53.71458 | 10.11901 | 7128 ft | 266 kts | 117° |
| 2026-05-07 08:26 | 53.70532 | 10.14646 | 7858 ft | 271 kts | 117° |
| 2026-05-07 08:27 | 53.69487 | 10.17334 | 8598 ft | 278 kts | 131° |
| 2026-05-07 08:27 | 53.67899 | 10.19214 | 9361 ft | 283 kts | 157° |
| 2026-05-07 08:27 | 53.66048 | 10.20235 | 10171 ft | 284 kts | 162° |
| 2026-05-07 08:27 | 53.64136 | 10.21226 | 10937 ft | 285 kts | 163° |
| 2026-05-07 08:28 | 53.62204 | 10.22225 | 11212 ft | 306 kts | 163° |
| 2026-05-07 08:28 | 53.60093 | 10.23319 | 11367 ft | 329 kts | 163° |
| 2026-05-07 08:28 | 53.57827 | 10.24492 | 11499 ft | 351 kts | 163° |
| 2026-05-07 08:28 | 53.55444 | 10.25728 | 11869 ft | 363 kts | 162° |
| 2026-05-07 08:29 | 53.53011 | 10.26993 | 12501 ft | 368 kts | 163° |
| 2026-05-07 08:29 | 53.50555 | 10.28270 | 13135 ft | 372 kts | 163° |
| 2026-05-07 08:29 | 53.48074 | 10.29560 | 13841 ft | 375 kts | 163° |
| 2026-05-07 08:29 | 53.45567 | 10.30858 | 14455 ft | 378 kts | 163° |
| 2026-05-07 08:30 | 53.43044 | 10.32166 | 15080 ft | 381 kts | 163° |
| 2026-05-07 08:30 | 53.40492 | 10.33431 | 15681 ft | 384 kts | 165° |
| 2026-05-07 08:30 | 53.37906 | 10.34620 | 16297 ft | 387 kts | 166° |
| 2026-05-07 08:30 | 53.35297 | 10.35766 | 16943 ft | 389 kts | 166° |
| 2026-05-07 08:31 | 53.32668 | 10.36904 | 17574 ft | 392 kts | 166° |
| 2026-05-07 08:31 | 53.30020 | 10.38052 | 18202 ft | 394 kts | 167° |
| 2026-05-07 08:31 | 53.27359 | 10.39219 | 18748 ft | 397 kts | 166° |
| 2026-05-07 08:31 | 53.24682 | 10.40407 | 19312 ft | 399 kts | 166° |
| 2026-05-07 08:32 | 53.21990 | 10.41615 | 19842 ft | 402 kts | 166° |
| 2026-05-07 08:32 | 53.19283 | 10.42833 | 20371 ft | 405 kts | 166° |
| 2026-05-07 08:32 | 53.16558 | 10.44055 | 20899 ft | 407 kts | 167° |
| 2026-05-07 08:32 | 53.13792 | 10.45103 | 21391 ft | 409 kts | 173° |
| 2026-05-07 08:33 | 53.10960 | 10.45404 | 21881 ft | 409 kts | 182° |
| 2026-05-07 08:33 | 53.08106 | 10.45061 | 22375 ft | 411 kts | 186° |
| 2026-05-07 08:33 | 53.05245 | 10.44654 | 22862 ft | 413 kts | 186° |
| 2026-05-07 08:33 | 53.02372 | 10.44249 | 23349 ft | 416 kts | 186° |
| 2026-05-07 08:34 | 52.99478 | 10.43846 | 23769 ft | 419 kts | 186° |
| 2026-05-07 08:34 | 52.96568 | 10.43445 | 24147 ft | 421 kts | 186° |
| 2026-05-07 08:34 | 52.93640 | 10.43048 | 24533 ft | 424 kts | 186° |
| 2026-05-07 08:34 | 52.90692 | 10.42653 | 24918 ft | 426 kts | 186° |
| 2026-05-07 08:35 | 52.87735 | 10.42255 | 25313 ft | 428 kts | 186° |
| 2026-05-07 08:35 | 52.84757 | 10.41851 | 25683 ft | 430 kts | 186° |
| 2026-05-07 08:35 | 52.81803 | 10.41446 | 26050 ft | 433 kts | 186° |
| 2026-05-07 08:35 | 52.78788 | 10.41035 | 26408 ft | 435 kts | 186° |
| 2026-05-07 08:36 | 52.75768 | 10.40625 | 26790 ft | 437 kts | 186° |
| 2026-05-07 08:36 | 52.72731 | 10.40214 | 27174 ft | 438 kts | 186° |
| 2026-05-07 08:36 | 52.69672 | 10.39800 | 27493 ft | 441 kts | 186° |
| 2026-05-07 08:36 | 52.66602 | 10.39385 | 27823 ft | 444 kts | 185° |
| 2026-05-07 08:37 | 52.63513 | 10.38969 | 28181 ft | 446 kts | 186° |
| 2026-05-07 08:37 | 52.60411 | 10.38552 | 28536 ft | 448 kts | 186° |
| 2026-05-07 08:37 | 52.57293 | 10.38134 | 28904 ft | 450 kts | 185° |
| 2026-05-07 08:37 | 52.54160 | 10.37718 | 29252 ft | 451 kts | 185° |
| 2026-05-07 08:38 | 52.51033 | 10.37300 | 29738 ft | 450 kts | 185° |
| 2026-05-07 08:38 | 52.47922 | 10.36882 | 30238 ft | 448 kts | 185° |
| 2026-05-07 08:38 | 52.44820 | 10.36462 | 30673 ft | 446 kts | 185° |
| 2026-05-07 08:38 | 52.41768 | 10.36049 | 31073 ft | 446 kts | 185° |
| 2026-05-07 08:39 | 52.38681 | 10.35636 | 31446 ft | 445 kts | 185° |
| 2026-05-07 08:39 | 52.35590 | 10.35228 | 31786 ft | 445 kts | 185° |
| 2026-05-07 08:39 | 52.32501 | 10.34820 | 32172 ft | 444 kts | 185° |
| 2026-05-07 08:39 | 52.29421 | 10.34413 | 32566 ft | 443 kts | 185° |
| 2026-05-07 08:40 | 52.26347 | 10.34009 | 32932 ft | 443 kts | 185° |
| 2026-05-07 08:40 | 52.23281 | 10.33603 | 33281 ft | 442 kts | 185° |
| 2026-05-07 08:40 | 52.20214 | 10.33201 | 33623 ft | 442 kts | 185° |
| 2026-05-07 08:40 | 52.17146 | 10.32795 | 33980 ft | 442 kts | 185° |
| 2026-05-07 08:41 | 52.14084 | 10.32389 | 34265 ft | 441 kts | 186° |
| 2026-05-07 08:41 | 52.11021 | 10.31985 | 34524 ft | 441 kts | 185° |
| 2026-05-07 08:41 | 52.07955 | 10.31583 | 34776 ft | 442 kts | 185° |
| 2026-05-07 08:41 | 52.04893 | 10.31181 | 35037 ft | 442 kts | 185° |
| 2026-05-07 08:42 | 52.02861 | 10.30915 | 35206 ft | 442 kts | 186° |
| 2026-05-07 08:42 | 51.98757 | 10.30372 | 35542 ft | 442 kts | 186° |
| 2026-05-07 08:42 | 51.95693 | 10.29968 | 35783 ft | 442 kts | 186° |
| 2026-05-07 08:42 | 51.92658 | 10.29570 | 35943 ft | 443 kts | 186° |
| 2026-05-07 08:43 | 51.86516 | 10.28775 | 35990 ft | 442 kts | 186° |
| 2026-05-07 08:43 | 51.80383 | 10.27975 | 35984 ft | 442 kts | 185° |
| 2026-05-07 08:44 | 51.75245 | 10.27311 | 35985 ft | 442 kts | 185° |
| 2026-05-07 08:44 | 51.69148 | 10.26526 | 35979 ft | 443 kts | 185° |
| 2026-05-07 08:45 | 51.63001 | 10.25733 | 35980 ft | 443 kts | 185° |
| 2026-05-07 08:45 | 51.56853 | 10.24951 | 35979 ft | 443 kts | 185° |
| 2026-05-07 08:46 | 51.50696 | 10.24161 | 35982 ft | 444 kts | 185° |
| 2026-05-07 08:46 | 51.44532 | 10.23364 | 35985 ft | 444 kts | 185° |
| 2026-05-07 08:47 | 51.38368 | 10.22578 | 35985 ft | 444 kts | 185° |
| 2026-05-07 08:47 | 51.32200 | 10.21828 | 35984 ft | 445 kts | 184° |
| 2026-05-07 08:48 | 51.26011 | 10.21567 | 35981 ft | 445 kts | 181° |
| 2026-05-07 08:48 | 51.19858 | 10.21600 | 35980 ft | 445 kts | 181° |
| 2026-05-07 08:49 | 51.13666 | 10.21572 | 35980 ft | 445 kts | 181° |
| 2026-05-07 08:49 | 51.07473 | 10.21448 | 35980 ft | 445 kts | 181° |
| 2026-05-07 08:50 | 51.01274 | 10.21315 | 35980 ft | 446 kts | 181° |
| 2026-05-07 08:50 | 50.95076 | 10.21196 | 35980 ft | 445 kts | 181° |
| 2026-05-07 08:51 | 50.88878 | 10.21093 | 35982 ft | 445 kts | 181° |
| 2026-05-07 08:51 | 50.82866 | 10.19363 | 35737 ft | 441 kts | 207° |
| 2026-05-07 08:52 | 50.80292 | 10.16763 | 35506 ft | 440 kts | 219° |
| 2026-05-07 08:52 | 50.78068 | 10.13436 | 35272 ft | 441 kts | 229° |
| 2026-05-07 08:52 | 50.76231 | 10.09569 | 35027 ft | 441 kts | 238° |
| 2026-05-07 08:52 | 50.74767 | 10.05292 | 34792 ft | 442 kts | 242° |
| 2026-05-07 08:53 | 50.73358 | 10.00978 | 34564 ft | 443 kts | 242° |
| 2026-05-07 08:53 | 50.71961 | 9.96647 | 34332 ft | 443 kts | 242° |
| 2026-05-07 08:53 | 50.70572 | 9.92313 | 34098 ft | 443 kts | 243° |
| 2026-05-07 08:53 | 50.69179 | 9.87958 | 33456 ft | 445 kts | 243° |
| 2026-05-07 08:54 | 50.67783 | 9.83599 | 32751 ft | 446 kts | 243° |
| 2026-05-07 08:54 | 50.66380 | 9.79228 | 31949 ft | 449 kts | 244° |
| 2026-05-07 08:54 | 50.64908 | 9.74867 | 31171 ft | 452 kts | 239° |
| 2026-05-07 08:54 | 50.63025 | 9.70896 | 30414 ft | 453 kts | 228° |
| 2026-05-07 08:55 | 50.60727 | 9.67534 | 29587 ft | 454 kts | 218° |
| 2026-05-07 08:55 | 50.58055 | 9.64833 | 28739 ft | 458 kts | 207° |
| 2026-05-07 08:55 | 50.55140 | 9.62862 | 27905 ft | 454 kts | 202° |
| 2026-05-07 08:55 | 50.52348 | 9.60631 | 27089 ft | 446 kts | 215° |
| 2026-05-07 08:56 | 50.49999 | 9.57632 | 26304 ft | 426 kts | 226° |
| 2026-05-07 08:56 | 50.48097 | 9.54208 | 25553 ft | 408 kts | 234° |
| 2026-05-07 08:56 | 50.46572 | 9.50554 | 24742 ft | 394 kts | 242° |
| 2026-05-07 08:56 | 50.45406 | 9.46714 | 23884 ft | 386 kts | 250° |
| 2026-05-07 08:57 | 50.44588 | 9.42755 | 22941 ft | 378 kts | 255° |
| 2026-05-07 08:57 | 50.43848 | 9.38831 | 21946 ft | 372 kts | 255° |
| 2026-05-07 08:57 | 50.43117 | 9.34976 | 21004 ft | 365 kts | 254° |
| 2026-05-07 08:57 | 50.42360 | 9.31260 | 20094 ft | 358 kts | 247° |
| 2026-05-07 08:58 | 50.41003 | 9.28037 | 19209 ft | 354 kts | 226° |
| 2026-05-07 08:58 | 50.39013 | 9.25848 | 18350 ft | 349 kts | 203° |
| 2026-05-07 08:58 | 50.36674 | 9.24986 | 17370 ft | 345 kts | 181° |
| 2026-05-07 08:58 | 50.34314 | 9.25477 | 16322 ft | 343 kts | 166° |
| 2026-05-07 08:59 | 50.32019 | 9.26473 | 15379 ft | 340 kts | 164° |
| 2026-05-07 08:59 | 50.29761 | 9.27511 | 14479 ft | 336 kts | 164° |
| 2026-05-07 08:59 | 50.27528 | 9.28549 | 13407 ft | 334 kts | 164° |
| 2026-05-07 08:59 | 50.25247 | 9.29612 | 12075 ft | 342 kts | 164° |
| 2026-05-07 09:00 | 50.22992 | 9.30667 | 11167 ft | 335 kts | 164° |
| 2026-05-07 09:00 | 50.20806 | 9.31696 | 10329 ft | 329 kts | 164° |
| 2026-05-07 09:00 | 50.18634 | 9.32722 | 9430 ft | 323 kts | 164° |
| 2026-05-07 09:00 | 50.16500 | 9.33733 | 8501 ft | 318 kts | 164° |
| 2026-05-07 09:01 | 50.14392 | 9.34724 | 7594 ft | 314 kts | 164° |
| 2026-05-07 09:01 | 50.12316 | 9.35690 | 6738 ft | 309 kts | 164° |
| 2026-05-07 09:01 | 50.10277 | 9.36549 | 6016 ft | 298 kts | 173° |
| 2026-05-07 09:01 | 50.08259 | 9.36341 | 5283 ft | 287 kts | 200° |
| 2026-05-07 09:02 | 50.06581 | 9.34821 | 4572 ft | 276 kts | 227° |
| 2026-05-07 09:02 | 50.05582 | 9.32364 | 3842 ft | 267 kts | 256° |
| 2026-05-07 09:02 | 50.05370 | 9.29558 | 3167 ft | 258 kts | 272° |
| 2026-05-07 09:02 | 50.05408 | 9.26896 | 3002 ft | 233 kts | 274° |
| 2026-05-07 09:03 | 50.05460 | 9.24442 | 3002 ft | 226 kts | 275° |
| 2026-05-07 09:03 | 50.05662 | 9.22029 | 3049 ft | 226 kts | 282° |
| 2026-05-07 09:03 | 50.05988 | 9.19602 | 3009 ft | 231 kts | 284° |
| 2026-05-07 09:03 | 50.06330 | 9.17152 | 3003 ft | 232 kts | 283° |
| 2026-05-07 09:04 | 50.06679 | 9.14709 | 2998 ft | 232 kts | 284° |
| 2026-05-07 09:04 | 50.07020 | 9.12233 | 3006 ft | 235 kts | 284° |
| 2026-05-07 09:04 | 50.07353 | 9.09752 | 3011 ft | 233 kts | 283° |
| 2026-05-07 09:04 | 50.07681 | 9.07276 | 3013 ft | 234 kts | 284° |
| 2026-05-07 09:05 | 50.08006 | 9.04822 | 3015 ft | 233 kts | 284° |
| 2026-05-07 09:05 | 50.08327 | 9.02385 | 3012 ft | 226 kts | 284° |
| 2026-05-07 09:05 | 50.08644 | 9.00004 | 3016 ft | 224 kts | 284° |
| 2026-05-07 09:05 | 50.08956 | 8.97640 | 3020 ft | 223 kts | 284° |
| 2026-05-07 09:06 | 50.09269 | 8.95263 | 3018 ft | 224 kts | 284° |
| 2026-05-07 09:06 | 50.09582 | 8.92894 | 3025 ft | 223 kts | 284° |
| 2026-05-07 09:06 | 50.09895 | 8.90535 | 3027 ft | 222 kts | 284° |
| 2026-05-07 09:06 | 50.10193 | 8.88263 | 3020 ft | 205 kts | 284° |
| 2026-05-07 09:07 | 50.10347 | 8.86152 | 3037 ft | 191 kts | 270° |
| 2026-05-07 09:07 | 50.10041 | 8.84155 | 3026 ft | 190 kts | 253° |
| 2026-05-07 09:07 | 50.09587 | 8.82235 | 3027 ft | 187 kts | 253° |
| 2026-05-07 09:07 | 50.09139 | 8.80332 | 3031 ft | 188 kts | 253° |
| 2026-05-07 09:08 | 50.08691 | 8.78429 | 3004 ft | 187 kts | 252° |
| 2026-05-07 09:08 | 50.08249 | 8.76559 | 2826 ft | 186 kts | 253° |
| 2026-05-07 09:08 | 50.07805 | 8.74678 | 2591 ft | 184 kts | 252° |
| 2026-05-07 09:08 | 50.07364 | 8.72815 | 2392 ft | 178 kts | 252° |
| 2026-05-07 09:09 | 50.06963 | 8.71129 | 2121 ft | 156 kts | 253° |
| 2026-05-07 09:09 | 50.06600 | 8.69595 | 1905 ft | 148 kts | 253° |
| 2026-05-07 09:09 | 50.06249 | 8.68111 | 1719 ft | 144 kts | 253° |
| 2026-05-07 09:09 | 50.05906 | 8.66662 | 1505 ft | 142 kts | 252° |
| 2026-05-07 09:10 | 50.05565 | 8.65226 | 1318 ft | 141 kts | 252° |
| 2026-05-07 09:10 | 50.05226 | 8.63790 | 1115 ft | 141 kts | 252° |
| 2026-05-07 09:10 | 50.04887 | 8.62366 | 907 ft | 139 kts | 252° |
| 2026-05-07 09:10 | 50.04554 | 8.60956 | 742 ft | 138 kts | 252° |
| 2026-05-07 09:11 | 50.04220 | 8.59565 | 551 ft | 137 kts | 251° |
| 2026-05-07 09:11 | 50.03898 | 8.58196 | 366 ft | 134 kts | 252° |
| 2026-05-07 09:11 | 50.03625 | 8.57061 | 348 ft | 76 kts | 249° |
| 2026-05-07 09:11 | 50.03487 | 8.56495 | 352 ft | 46 kts | 249° |
| 2026-05-07 09:12 | 50.03431 | 8.56146 | 352 ft | 31 kts | 271° |
| 2026-05-07 09:12 | 50.03454 | 8.55882 | 346 ft | 18 kts | 277° |
| 2026-05-07 09:12 | 50.03465 | 8.55769 | 354 ft | 3 kts | 275° |
| 2026-05-07 09:12 | 50.03465 | 8.55767 | 354 ft | 0 kts | 274° |
| 2026-05-07 09:13 | 50.03468 | 8.55744 | 352 ft | 8 kts | 282° |
| 2026-05-07 09:13 | 50.03524 | 8.55700 | 350 ft | 10 kts | 9° |
| 2026-05-07 09:13 | 50.03572 | 8.55802 | 347 ft | 17 kts | 70° |
| 2026-05-07 09:14 | 50.03631 | 8.56037 | 349 ft | 30 kts | 68° |
| 2026-05-07 09:14 | 50.03709 | 8.56397 | 351 ft | 39 kts | 69° |
| 2026-05-07 09:14 | 50.03795 | 8.56730 | 351 ft | 27 kts | 67° |
| 2026-05-07 09:14 | 50.03854 | 8.56981 | 351 ft | 22 kts | 69° |
| 2026-05-07 09:15 | 50.03907 | 8.57205 | 347 ft | 18 kts | 72° |
| 2026-05-07 09:15 | 50.03943 | 8.57347 | 353 ft | 14 kts | 68° |
| 2026-05-07 09:15 | 50.03979 | 8.57499 | 350 ft | 16 kts | 72° |
| 2026-05-07 09:15 | 50.04016 | 8.57667 | 349 ft | 17 kts | 70° |
| 2026-05-07 09:16 | 50.04064 | 8.57843 | 348 ft | 18 kts | 73° |
| 2026-05-07 09:16 | 50.04106 | 8.58031 | 352 ft | 19 kts | 66° |
| 2026-05-07 09:16 | 50.04156 | 8.58229 | 350 ft | 20 kts | 67° |
| 2026-05-07 09:16 | 50.04204 | 8.58441 | 349 ft | 21 kts | 73° |
| 2026-05-07 09:17 | 50.04255 | 8.58665 | 351 ft | 22 kts | 68° |
| 2026-05-07 09:17 | 50.04314 | 8.58893 | 353 ft | 23 kts | 71° |
| 2026-05-07 09:17 | 50.04369 | 8.59137 | 350 ft | 24 kts | 70° |
| 2026-05-07 09:17 | 50.04425 | 8.59363 | 346 ft | 18 kts | 69° |
| 2026-05-07 09:18 | 50.04443 | 8.59431 | 351 ft | 3 kts | 64° |
| 2026-05-07 09:18 | 50.04477 | 8.59470 | 354 ft | 8 kts | 15° |
| 2026-05-07 09:18 | 50.04535 | 8.59469 | 346 ft | 9 kts | 359° |
| 2026-05-07 09:18 | 50.04604 | 8.59465 | 349 ft | 11 kts | 354° |
| 2026-05-07 09:19 | 50.04684 | 8.59447 | 355 ft | 13 kts | 348° |
| 2026-05-07 09:19 | 50.04739 | 8.59421 | 350 ft | 8 kts | 340° |
| 2026-05-07 09:19 | 50.04797 | 8.59387 | 350 ft | 10 kts | 338° |
| 2026-05-07 09:19 | 50.04845 | 8.59315 | 348 ft | 10 kts | 285° |
| 2026-05-07 09:20 | 50.04831 | 8.59207 | 354 ft | 11 kts | 251° |
| 2026-05-07 09:20 | 50.04803 | 8.59087 | 348 ft | 13 kts | 252° |
| 2026-05-07 09:20 | 50.04774 | 8.58953 | 345 ft | 10 kts | 252° |
| 2026-05-07 09:20 | 50.04784 | 8.58870 | 352 ft | 9 kts | 323° |
| 2026-05-07 09:21 | 50.04825 | 8.58839 | 348 ft | 1 kts | 339° |
| 2026-05-07 09:21 | 50.04832 | 8.58835 | 353 ft | 0 kts | 339° |